Ancona, IL

6:22 PM CDT on July 21, 2017 (GMT -0500)
Eplin/Connell Farm | | Change Station
Active Advisory: Severe Thunderstorm Watch

Elev 626 ft 41.17 °N, 88.85 °W | Updated 2 minutes ago

Partly Cloudy
Partly Cloudy
93.6 °F
Feels Like 114 °F
N
0.0
Wind Variable Wind from SSE
Gusts 5.0 mph

Today
High -- | Low -- °F
--% Chance of Precip.
Yesterday
High -- | Low -- °F
Precip. -- in
Pressure 29.88 in
Visibility 10.0 miles
Clouds Scattered Clouds 5500 ft
Heat Index 114 °F
Dew Point 80 °F
Humidity 66%
Rainfall 0.00 in
Snow Depth Not available.
5:41 AM 8:21 PM
Waning Crescent, 3% visible
METAR KPNT 212315Z AUTO 21006KT 10SM SCT055 33/27 A2988 RMK AO2 T03290272
Pressure 29.88 in
Visibility 10.0 miles
Clouds Scattered Clouds 5500 ft
Heat Index 114 °F
Dew Point 80 °F
Humidity 66%
Rainfall 0.00 in
Snow Depth Not available.
5:41 AM 8:21 PM
Waning Crescent, 3% visible
METAR KPNT 212315Z AUTO 21006KT 10SM SCT055 33/27 A2988 RMK AO2 T03290272

Get Your Daily Forecast Email!

Thanks for signing up!

Be on the lookout for a verification email in your inbox.

You'll start receiving severe weather alerts in your inbox..

×

10-Day Weather Forecast

Almanac

Astronomy

Jul. 21, 2017 Rise Set
Actual Time
Civil Twilight
Nautical Twilight
Astronomical Twilight
Moon
Length of Visible Light
Length of Day
Tomorrow will be .
, % of the Moon is Illuminated

Today's Extremes

State Highs State Lows

Community

WunderPhotos

Category 6

Welcome to Category 6. This is the collective home for Weather Underground's featured writeups by Dr. Jeff Masters (right), Bob Henson (left), Chris Burt, and other regular contributors.

Nearby

Air Quality

  Air Quality AQ Index Pollutant
Not available.

Snow Depth

Station Depth Elevation

Earthquake Activity

City Distance Mag. Time & Date
Minimum magnitude displayed is 2.5.

Coastal Water Temperatures

Place Temperature

Stations

Nearby Weather Stations

Station Location Temp. Windchill Dew Point Humidity Wind Precip. Elev Updated Type
                   

Watches & Warnings

Severe Thunderstorm Watch
Issued: 6:03 PM CDT Jul. 21, 2017 – National Weather Service

Severe Thunderstorm Watch 429 remains in effect until 1200 am CDT

IL
. Illinois counties included are

Boone Bureau Carroll
Cook De Kalb dupage
Ford Grundy Henderson
Henry Iroquois Jo Daviess
Kane Kankakee Kendall
Knox Lake La Salle
Lee Livingston McHenry
Marshall Mercer Ogle
Peoria Putnam Rock Island
Stark Stephenson Warren
Whiteside will Winnebago
Woodford